createdAt,value
2018-11-27T00:00:26.372Z,18.63
2018-11-27T00:03:04.819Z,18.20
2018-11-27T00:05:32.943Z,18.07
2018-11-27T00:08:00.658Z,18.73
2018-11-27T00:10:30.099Z,17.60
2018-11-27T00:12:57.851Z,18.90
2018-11-27T00:15:25.706Z,18.20
2018-11-27T00:17:53.451Z,18.80
2018-11-27T00:20:21.155Z,17.33
2018-11-27T00:22:48.912Z,19.20
2018-11-27T00:25:17.017Z,18.73
2018-11-27T00:27:45.791Z,19.50
2018-11-27T00:30:14.244Z,17.53
2018-11-27T00:32:41.959Z,17.30
2018-11-27T00:35:10.131Z,18.90
2018-11-27T00:37:37.862Z,17.63
2018-11-27T00:40:12.755Z,18.07
2018-11-27T00:42:40.520Z,18.80
2018-11-27T00:45:09.032Z,18.33
2018-11-27T00:47:36.809Z,18.20
2018-11-27T00:50:06.910Z,17.67
2018-11-27T00:52:34.656Z,17.37
2018-11-27T00:55:02.399Z,17.70
2018-11-27T00:57:30.151Z,17.60
2018-11-27T00:59:57.875Z,19.67
2018-11-27T01:02:25.652Z,17.67
2018-11-27T01:04:53.387Z,17.73
2018-11-27T01:07:21.120Z,17.53
2018-11-27T01:09:48.895Z,19.30
2018-11-27T01:12:18.590Z,19.00
2018-11-27T01:14:46.282Z,18.07
2018-11-27T01:17:14.056Z,18.67
2018-11-27T01:19:41.794Z,18.90
2018-11-27T01:22:09.559Z,18.23
2018-11-27T01:24:37.346Z,18.13
2018-11-27T01:27:05.464Z,17.27
2018-11-27T01:29:33.216Z,19.30
2018-11-27T01:32:00.923Z,19.50
2018-11-27T01:34:28.694Z,19.20
2018-11-27T01:36:56.482Z,18.57
2018-11-27T01:39:24.199Z,17.67
2018-11-27T01:41:51.894Z,17.40
2018-11-27T01:44:19.692Z,18.30
2018-11-27T01:46:47.411Z,18.47
2018-11-27T01:49:15.217Z,19.00
2018-11-27T01:51:43.064Z,17.83
2018-11-27T01:54:10.824Z,18.10
2018-11-27T01:56:38.571Z,18.33
2018-11-27T01:59:06.384Z,18.40
2018-11-27T02:01:34.096Z,17.50
2018-11-27T02:04:02.746Z,17.53
2018-11-27T02:06:30.443Z,17.87
2018-11-27T02:08:58.219Z,15.90
2018-11-27T02:11:25.961Z,16.73
2018-11-27T02:13:53.672Z,17.50
2018-11-27T02:16:21.412Z,18.77
2018-11-27T02:18:49.178Z,18.17
2018-11-27T02:21:16.944Z,18.70
2018-11-27T02:23:44.698Z,19.00
2018-11-27T02:26:12.494Z,19.87
2018-11-27T02:28:40.236Z,18.10
2018-11-27T02:31:07.959Z,20.27
2018-11-27T02:33:35.664Z,18.27
2018-11-27T02:36:04.719Z,17.33
2018-11-27T02:38:32.439Z,18.33
2018-11-27T02:41:00.188Z,18.20
2018-11-27T02:43:27.961Z,18.33
2018-11-27T02:45:55.780Z,17.63
2018-11-27T02:48:23.490Z,18.00
2018-11-27T02:50:51.233Z,18.70
2018-11-27T02:53:19.958Z,18.03
2018-11-27T02:55:47.678Z,17.00
2018-11-27T02:58:15.448Z,18.67
2018-11-27T03:00:44.137Z,18.37
2018-11-27T03:03:11.895Z,17.30
2018-11-27T03:05:39.644Z,17.23
2018-11-27T03:08:07.311Z,17.77
2018-11-27T03:10:35.100Z,18.67
2018-11-27T03:13:02.859Z,18.80
2018-11-27T03:15:31.601Z,17.80
2018-11-27T03:17:59.286Z,18.00
2018-11-27T03:20:26.994Z,18.63
2018-11-27T03:22:54.740Z,16.40
2018-11-27T03:25:23.125Z,18.30
2018-11-27T03:27:51.438Z,20.07
2018-11-27T03:30:19.689Z,19.07
2018-11-27T03:32:47.441Z,17.83
2018-11-27T03:35:16.646Z,17.17
2018-11-27T03:37:44.623Z,20.10
2018-11-27T03:40:13.144Z,17.70
2018-11-27T03:42:40.851Z,18.40
2018-11-27T03:45:09.329Z,18.17
2018-11-27T03:47:38.115Z,18.40
2018-11-27T03:50:08.417Z,18.00
2018-11-27T03:52:37.143Z,17.00
2018-11-27T03:55:05.876Z,19.80
2018-11-27T03:57:33.613Z,19.10
2018-11-27T04:00:01.381Z,18.77
2018-11-27T04:02:29.088Z,18.10
2018-11-27T04:04:56.869Z,16.67
2018-11-27T04:07:24.659Z,18.17
2018-11-27T04:09:52.401Z,17.70
2018-11-27T04:12:20.194Z,18.20
2018-11-27T04:14:47.918Z,20.00
2018-11-27T04:17:15.668Z,18.80
2018-11-27T04:19:43.345Z,18.60
2018-11-27T04:22:11.109Z,18.50
2018-11-27T04:24:38.851Z,18.83
2018-11-27T04:27:06.653Z,18.40
2018-11-27T04:29:34.401Z,18.40
2018-11-27T04:32:02.133Z,18.77
2018-11-27T04:34:29.845Z,18.67
2018-11-27T04:36:57.649Z,17.87
2018-11-27T04:39:25.348Z,18.37
2018-11-27T04:41:53.099Z,19.30
2018-11-27T04:44:20.817Z,16.00
2018-11-27T04:46:48.550Z,18.63
2018-11-27T04:49:16.324Z,18.30
2018-11-27T04:51:44.964Z,18.47
2018-11-27T04:54:12.705Z,19.57
2018-11-27T04:56:40.440Z,18.53
2018-11-27T04:59:08.193Z,18.70
2018-11-27T05:01:35.936Z,17.60
2018-11-27T05:04:03.660Z,18.37
2018-11-27T05:06:31.400Z,19.20
2018-11-27T05:09:00.147Z,19.00
2018-11-27T05:11:27.839Z,20.00
2018-11-27T05:13:55.640Z,18.00
2018-11-27T05:16:23.344Z,17.33
2018-11-27T05:18:51.044Z,16.63
2018-11-27T05:21:18.795Z,19.77
2018-11-27T05:23:46.569Z,18.57
2018-11-27T05:26:14.353Z,17.73
2018-11-27T05:28:42.079Z,18.17
2018-11-27T05:31:09.839Z,18.50
2018-11-27T05:33:37.583Z,18.60
2018-11-27T05:36:05.517Z,19.37
2018-11-27T05:38:33.227Z,18.63
2018-11-27T05:41:00.908Z,17.93
2018-11-27T05:43:28.671Z,18.87
2018-11-27T05:45:56.437Z,19.30
2018-11-27T05:48:24.348Z,16.77
2018-11-27T05:50:52.064Z,17.60
2018-11-27T05:53:19.862Z,18.30
2018-11-27T05:55:47.593Z,16.40
2018-11-27T05:58:15.327Z,18.20
2018-11-27T06:00:43.064Z,17.77
2018-11-27T06:03:10.771Z,19.30
2018-11-27T06:05:38.577Z,18.33
2018-11-27T06:08:06.343Z,18.80
2018-11-27T06:10:34.037Z,17.77
2018-11-27T06:13:01.789Z,17.90
2018-11-27T06:15:29.513Z,17.30
2018-11-27T06:17:57.998Z,18.80
2018-11-27T06:20:26.797Z,18.30
2018-11-27T06:22:54.588Z,18.43
2018-11-27T06:25:26.822Z,16.70
2018-11-27T06:27:55.088Z,17.13
2018-11-27T06:30:23.403Z,17.97
2018-11-27T06:32:51.128Z,17.90
2018-11-27T06:35:19.649Z,17.40
2018-11-27T06:37:48.404Z,16.80
2018-11-27T06:40:16.891Z,17.60
2018-11-27T06:42:44.637Z,18.17
2018-11-27T06:45:13.064Z,18.20
2018-11-27T06:47:40.803Z,18.90
2018-11-27T06:50:09.304Z,17.57
2018-11-27T06:52:37.068Z,18.40
2018-11-27T06:55:05.752Z,18.43
2018-11-27T06:57:33.512Z,17.33
2018-11-27T07:00:01.262Z,18.37
2018-11-27T07:02:28.995Z,18.37
2018-11-27T07:04:56.744Z,17.37
2018-11-27T07:07:24.482Z,18.73
2018-11-27T07:09:52.204Z,17.03
2018-11-27T07:12:20.876Z,17.47
2018-11-27T07:14:48.684Z,17.07
2018-11-27T07:17:16.383Z,18.77
2018-11-27T07:19:44.083Z,19.00
2018-11-27T07:22:11.843Z,18.20
2018-11-27T07:24:39.583Z,17.87
2018-11-27T07:27:07.336Z,18.33
2018-11-27T07:29:35.103Z,18.13
2018-11-27T07:32:02.898Z,18.50
2018-11-27T07:34:30.595Z,17.83
2018-11-27T07:36:58.323Z,18.67
2018-11-27T07:39:26.155Z,21.37
2018-11-27T07:41:53.848Z,19.30
2018-11-27T07:44:21.583Z,19.70
2018-11-27T07:46:49.283Z,19.50
2018-11-27T07:49:17.044Z,19.43
2018-11-27T07:51:44.836Z,18.60
2018-11-27T07:54:12.567Z,19.30
2018-11-27T07:56:40.377Z,19.17
2018-11-27T07:59:08.092Z,18.00
2018-11-27T08:01:35.872Z,17.70
2018-11-27T08:04:03.600Z,19.40
2018-11-27T08:06:31.292Z,18.50
2018-11-27T08:08:59.056Z,19.20
2018-11-27T08:11:26.854Z,19.37
2018-11-27T08:13:54.597Z,17.53
2018-11-27T08:16:22.340Z,17.13
2018-11-27T08:18:50.022Z,19.20
2018-11-27T08:21:17.832Z,18.00
2018-11-27T08:23:45.532Z,18.30
2018-11-27T08:26:13.296Z,19.70
2018-11-27T08:28:41.093Z,18.13
2018-11-27T08:31:08.823Z,18.03
2018-11-27T08:33:36.588Z,17.43
2018-11-27T08:36:05.585Z,18.37
2018-11-27T08:38:33.239Z,18.77
2018-11-27T08:41:00.975Z,18.50
2018-11-27T08:43:28.704Z,17.60
2018-11-27T08:45:56.431Z,18.67
2018-11-27T08:48:24.208Z,17.17
2018-11-27T08:50:51.947Z,17.47
2018-11-27T08:53:19.619Z,16.83
2018-11-27T08:55:47.415Z,17.43
2018-11-27T08:58:16.900Z,17.37
2018-11-27T09:00:44.619Z,17.50
2018-11-27T09:03:12.328Z,17.07
2018-11-27T09:05:40.079Z,16.37
2018-11-27T09:08:07.880Z,15.60
2018-11-27T09:10:35.627Z,16.37
2018-11-27T09:13:03.359Z,16.47
2018-11-27T09:15:31.101Z,16.30
2018-11-27T09:18:02.919Z,16.03
2018-11-27T09:20:30.696Z,15.63
2018-11-27T09:22:58.440Z,15.90
2018-11-27T09:25:26.271Z,16.50
2018-11-27T09:27:53.985Z,16.20
2018-11-27T09:30:23.094Z,14.97
2018-11-27T09:32:50.861Z,16.13
2018-11-27T09:35:19.608Z,15.90
2018-11-27T09:37:47.371Z,15.87
2018-11-27T09:40:16.192Z,15.73
2018-11-27T09:42:43.968Z,15.23
2018-11-27T09:45:14.168Z,14.53
2018-11-27T09:47:42.258Z,14.33
2018-11-27T09:50:11.584Z,14.97
2018-11-27T09:52:39.311Z,15.97
2018-11-27T09:55:08.711Z,15.63
2018-11-27T09:57:37.469Z,14.23
2018-11-27T10:00:07.536Z,16.37
2018-11-27T10:02:35.255Z,17.33
2018-11-27T10:05:03.040Z,15.63
2018-11-27T10:07:30.785Z,16.10
2018-11-27T10:09:58.538Z,16.00
2018-11-27T10:12:26.237Z,16.63
2018-11-27T10:14:54.009Z,17.97
2018-11-27T10:17:21.723Z,17.77
2018-11-27T10:19:49.401Z,17.87
2018-11-27T10:22:17.194Z,19.77
2018-11-27T10:24:44.911Z,17.37
2018-11-27T10:27:12.584Z,17.53
2018-11-27T10:29:40.445Z,16.90
2018-11-27T10:32:08.180Z,17.50
2018-11-27T10:34:35.880Z,17.53
2018-11-27T10:37:03.598Z,16.03
2018-11-27T10:39:31.304Z,17.97
2018-11-27T10:41:59.101Z,17.37
2018-11-27T10:44:26.819Z,16.03
2018-11-27T10:46:54.514Z,18.17
2018-11-27T10:49:22.260Z,17.30
2018-11-27T10:51:50.073Z,16.10
2018-11-27T10:54:17.779Z,17.13
2018-11-27T10:56:45.506Z,17.80
2018-11-27T10:59:13.219Z,18.20
2018-11-27T11:01:46.692Z,16.23
2018-11-27T11:04:14.403Z,16.53
2018-11-27T11:06:42.207Z,17.07
2018-11-27T11:09:09.918Z,16.97
2018-11-27T11:11:37.667Z,16.83
2018-11-27T11:14:05.687Z,17.37
2018-11-27T11:16:33.393Z,16.23
2018-11-27T11:19:01.067Z,16.50
2018-11-27T11:21:28.840Z,17.93
2018-11-27T11:23:56.612Z,17.07
2018-11-27T11:26:24.354Z,16.57
2018-11-27T11:28:52.168Z,15.93
2018-11-27T11:31:20.428Z,16.17
2018-11-27T11:33:48.213Z,15.67
2018-11-27T11:36:15.934Z,15.80
2018-11-27T11:38:43.752Z,16.00
2018-11-27T11:41:11.447Z,16.87
2018-11-27T11:43:39.126Z,16.27
2018-11-27T11:46:06.890Z,16.50
2018-11-27T11:48:34.627Z,14.93
2018-11-27T11:51:02.368Z,14.67
2018-11-27T11:53:30.096Z,15.03
2018-11-27T11:55:57.831Z,14.50
2018-11-27T11:58:25.499Z,14.80
2018-11-27T12:00:54.444Z,15.93
2018-11-27T12:03:22.232Z,15.03
2018-11-27T12:05:49.931Z,14.90
2018-11-27T12:08:17.713Z,15.73
2018-11-27T12:10:45.476Z,14.60
2018-11-27T12:13:13.211Z,14.73
2018-11-27T12:15:40.971Z,14.93
2018-11-27T12:18:09.085Z,15.23
2018-11-27T12:20:36.898Z,15.60
2018-11-27T12:23:05.136Z,14.70
2018-11-27T12:25:32.892Z,13.67
2018-11-27T12:28:00.640Z,13.50
2018-11-27T12:30:28.443Z,14.90
2018-11-27T12:32:56.166Z,13.10
2018-11-27T12:35:24.336Z,12.90
2018-11-27T12:37:52.430Z,12.90
2018-11-27T12:40:20.714Z,12.50
2018-11-27T12:42:48.492Z,13.47
2018-11-27T12:45:16.840Z,13.20
2018-11-27T12:47:44.684Z,13.10
2018-11-27T12:50:14.039Z,14.40
2018-11-27T12:52:41.750Z,14.60
2018-11-27T12:55:10.502Z,14.83
2018-11-27T12:57:38.194Z,14.50
2018-11-27T13:00:08.746Z,14.17
2018-11-27T13:02:36.509Z,14.97
2018-11-27T13:05:04.479Z,15.07
2018-11-27T13:07:32.199Z,15.90
2018-11-27T13:09:59.916Z,15.80
2018-11-27T13:12:28.083Z,15.37
2018-11-27T13:14:55.416Z,15.73
2018-11-27T13:17:23.176Z,14.63
2018-11-27T13:19:50.969Z,16.70
2018-11-27T13:22:18.691Z,15.80
2018-11-27T13:24:46.384Z,15.63
2018-11-27T13:27:14.169Z,15.37
2018-11-27T13:29:42.936Z,15.30
2018-11-27T13:32:10.810Z,16.93
2018-11-27T13:34:38.587Z,15.87
2018-11-27T13:37:06.307Z,16.63
2018-11-27T13:39:36.492Z,15.47
2018-11-27T13:42:04.572Z,15.30
2018-11-27T13:44:32.290Z,15.43
2018-11-27T13:47:00.019Z,15.60
2018-11-27T13:49:27.873Z,15.60
2018-11-27T13:51:55.551Z,16.87
2018-11-27T13:54:23.250Z,15.60
2018-11-27T13:56:51.987Z,15.20
2018-11-27T13:59:19.813Z,15.80
2018-11-27T14:01:48.552Z,15.20
2018-11-27T14:04:16.257Z,15.53
2018-11-27T14:06:44.008Z,16.07
2018-11-27T14:09:11.767Z,16.00
2018-11-27T14:11:39.572Z,16.00
2018-11-27T14:14:07.289Z,16.43
2018-11-27T14:16:35.084Z,17.40
2018-11-27T14:19:02.847Z,15.57
2018-11-27T14:21:30.615Z,14.87
2018-11-27T14:23:58.349Z,15.53
2018-11-27T14:26:26.087Z,15.27
2018-11-27T14:28:53.767Z,15.83
2018-11-27T14:31:21.531Z,14.57
2018-11-27T14:33:49.232Z,14.70
2018-11-27T14:36:17.188Z,14.10
2018-11-27T14:38:44.944Z,13.80
2018-11-27T14:41:13.624Z,14.03
2018-11-27T14:43:41.425Z,14.90
2018-11-27T14:46:09.116Z,14.97
2018-11-27T14:48:36.797Z,14.73
2018-11-27T14:51:04.634Z,15.30
2018-11-27T14:53:32.335Z,15.10
2018-11-27T14:56:00.075Z,15.10
2018-11-27T14:58:27.764Z,14.40
2018-11-27T15:00:55.563Z,13.80
2018-11-27T15:03:23.283Z,14.70
2018-11-27T15:05:51.062Z,15.30
2018-11-27T15:08:18.837Z,13.67
2018-11-27T15:10:46.648Z,13.97
2018-11-27T15:13:14.367Z,13.77
2018-11-27T15:15:42.152Z,13.37
2018-11-27T15:18:09.847Z,13.10
2018-11-27T15:20:37.525Z,12.70
2018-11-27T15:23:05.223Z,13.87
2018-11-27T15:25:33.107Z,14.13
2018-11-27T15:28:00.892Z,13.40
2018-11-27T15:30:30.591Z,13.10
2018-11-27T15:32:59.192Z,13.43
2018-11-27T15:35:27.025Z,12.90
2018-11-27T15:37:54.774Z,14.03
2018-11-27T15:40:23.296Z,13.80
2018-11-27T15:42:51.314Z,13.30
2018-11-27T15:45:23.589Z,13.93
2018-11-27T15:47:51.345Z,15.23
2018-11-27T15:50:19.070Z,14.57
2018-11-27T15:52:46.987Z,15.80
2018-11-27T15:55:15.299Z,14.80
2018-11-27T15:57:43.091Z,14.17
2018-11-27T16:00:15.164Z,14.87
2018-11-27T16:02:43.004Z,13.50
2018-11-27T16:05:10.853Z,13.10
2018-11-27T16:07:38.588Z,12.93
2018-11-27T16:10:08.337Z,12.80
2018-11-27T16:12:36.039Z,13.33
2018-11-27T16:15:03.787Z,13.80
2018-11-27T16:17:31.479Z,14.20
2018-11-27T16:20:00.021Z,14.40
2018-11-27T16:22:27.780Z,13.97
2018-11-27T16:24:55.433Z,15.17
2018-11-27T16:27:23.140Z,13.40
2018-11-27T16:29:50.848Z,14.00
2018-11-27T16:32:18.550Z,13.70
2018-11-27T16:34:46.280Z,14.40
2018-11-27T16:37:13.991Z,14.67
2018-11-27T16:39:41.651Z,14.73
2018-11-27T16:42:09.372Z,13.30
2018-11-27T16:44:37.099Z,14.13
2018-11-27T16:47:05.207Z,13.27
2018-11-27T16:49:32.937Z,13.77
2018-11-27T16:52:00.747Z,14.03
2018-11-27T16:54:28.448Z,13.20
2018-11-27T16:56:56.220Z,14.00
2018-11-27T16:59:23.952Z,13.80
2018-11-27T17:01:51.689Z,13.37
2018-11-27T17:04:19.448Z,13.73
2018-11-27T17:06:47.188Z,14.17
2018-11-27T17:09:14.927Z,14.63
2018-11-27T17:11:42.664Z,14.27
2018-11-27T17:14:10.396Z,14.30
2018-11-27T17:16:38.155Z,14.37
2018-11-27T17:19:05.890Z,14.10
2018-11-27T17:21:33.689Z,13.70
2018-11-27T17:24:01.437Z,15.33
2018-11-27T17:26:29.217Z,15.13
2018-11-27T17:28:56.948Z,14.80
2018-11-27T17:31:24.691Z,14.70
2018-11-27T17:33:54.260Z,15.33
2018-11-27T17:36:21.986Z,16.00
2018-11-27T17:38:49.755Z,16.43
2018-11-27T17:41:17.606Z,14.90
2018-11-27T17:43:45.255Z,15.33
2018-11-27T17:46:12.976Z,13.93
2018-11-27T17:48:40.717Z,15.30
2018-11-27T17:51:08.475Z,15.10
2018-11-27T17:53:36.236Z,15.53
2018-11-27T17:56:04.056Z,15.10
2018-11-27T17:58:31.792Z,15.90
2018-11-27T18:00:59.568Z,14.70
2018-11-27T18:03:27.307Z,16.37
2018-11-27T18:05:55.099Z,15.30
2018-11-27T18:08:22.887Z,16.37
2018-11-27T18:10:50.583Z,15.60
2018-11-27T18:13:18.347Z,14.53
2018-11-27T18:15:46.117Z,15.57
2018-11-27T18:18:13.880Z,15.97
2018-11-27T18:20:41.714Z,15.30
2018-11-27T18:23:09.436Z,15.43
2018-11-27T18:25:37.188Z,17.40
2018-11-27T18:28:05.054Z,15.73
2018-11-27T18:30:32.848Z,15.20
2018-11-27T18:33:00.577Z,16.47
2018-11-27T18:35:28.340Z,15.97
2018-11-27T18:37:56.120Z,15.67
2018-11-27T18:40:23.815Z,17.23
2018-11-27T18:42:52.404Z,16.30
2018-11-27T18:45:20.752Z,16.00
2018-11-27T18:47:48.498Z,16.40
2018-11-27T18:50:16.270Z,16.00
2018-11-27T18:52:44.040Z,17.63
2018-11-27T18:55:12.238Z,17.67
2018-11-27T18:57:40.351Z,17.50
2018-11-27T19:00:10.819Z,18.30
2018-11-27T19:02:38.580Z,17.73
2018-11-27T19:05:06.304Z,17.10
2018-11-27T19:07:33.979Z,18.20
2018-11-27T19:10:01.719Z,17.80
2018-11-27T19:12:29.391Z,16.90
2018-11-27T19:14:57.079Z,16.50
2018-11-27T19:17:24.825Z,17.87
2018-11-27T19:19:52.615Z,17.70
2018-11-27T19:22:21.222Z,16.40
2018-11-27T19:24:48.172Z,17.23
2018-11-27T19:27:15.928Z,16.50
2018-11-27T19:29:43.675Z,17.50
2018-11-27T19:32:11.401Z,17.13
2018-11-27T19:34:39.152Z,17.80
2018-11-27T19:37:06.834Z,18.07
2018-11-27T19:39:34.614Z,16.20
2018-11-27T19:42:02.395Z,16.50
2018-11-27T19:44:30.142Z,17.40
2018-11-27T19:46:58.836Z,17.87
2018-11-27T19:49:26.640Z,17.80
2018-11-27T19:51:55.344Z,16.40
2018-11-27T19:54:23.036Z,16.83
2018-11-27T19:56:50.804Z,15.97
2018-11-27T19:59:18.547Z,16.67
2018-11-27T20:01:46.211Z,16.80
2018-11-27T20:04:13.937Z,18.03
2018-11-27T20:06:41.685Z,16.00
2018-11-27T20:09:09.454Z,16.77
2018-11-27T20:11:37.180Z,16.70
2018-11-27T20:14:04.952Z,17.67
2018-11-27T20:16:32.736Z,15.90
2018-11-27T20:19:00.484Z,15.57
2018-11-27T20:21:28.300Z,17.70
2018-11-27T20:23:55.979Z,16.10
2018-11-27T20:26:23.721Z,17.23
2018-11-27T20:28:51.436Z,17.67
2018-11-27T20:31:19.229Z,17.37
2018-11-27T20:33:46.931Z,16.00
2018-11-27T20:36:14.643Z,17.07
2018-11-27T20:41:09.344Z,17.47
2018-11-27T20:43:37.075Z,17.83
2018-11-27T20:46:05.082Z,17.30
2018-11-27T20:48:32.896Z,17.67
2018-11-27T20:51:00.591Z,16.90
2018-11-27T20:53:28.371Z,16.67
2018-11-27T20:55:56.011Z,16.90
2018-11-27T20:58:23.750Z,16.60
2018-11-27T21:00:51.928Z,17.30
2018-11-27T21:03:19.604Z,17.90
2018-11-27T21:05:47.294Z,17.10
2018-11-27T21:08:15.047Z,17.47
2018-11-27T21:10:42.786Z,16.70
2018-11-27T21:13:10.922Z,15.37
2018-11-27T21:15:39.455Z,16.33
2018-11-27T21:18:08.798Z,15.33
2018-11-27T21:20:38.192Z,15.00
2018-11-27T21:23:05.948Z,14.77
2018-11-27T21:25:33.734Z,14.00
2018-11-27T21:28:02.544Z,13.87
2018-11-27T21:30:30.308Z,13.23
2018-11-27T21:32:58.030Z,13.90
2018-11-27T21:35:26.137Z,14.77
2018-11-27T21:37:53.863Z,14.90
2018-11-27T21:40:21.697Z,13.67
2018-11-27T21:42:50.413Z,14.20
2018-11-27T21:45:18.823Z,15.20
2018-11-27T21:47:46.924Z,14.00
2018-11-27T21:50:15.152Z,14.20
2018-11-27T21:55:10.393Z,13.50
2018-11-27T21:57:38.132Z,14.50
2018-11-27T22:00:08.184Z,13.30
2018-11-27T22:02:35.855Z,13.63
2018-11-27T22:05:03.697Z,14.87
2018-11-27T22:07:31.414Z,14.77
2018-11-27T22:09:59.200Z,14.30
2018-11-27T22:12:26.964Z,15.45
2018-11-27T22:14:55.672Z,14.40
2018-11-27T22:17:23.370Z,15.30
2018-11-27T22:39:27.777Z,16.07
2018-11-27T22:41:55.529Z,15.40
2018-11-27T22:44:23.288Z,15.75
2018-11-27T22:46:51.028Z,15.55
2018-11-27T22:49:18.747Z,15.80
2018-11-27T22:51:46.499Z,15.60
2018-11-27T22:54:14.244Z,15.55
2018-11-27T22:56:41.983Z,15.23
2018-11-27T22:59:09.712Z,16.03
2018-11-27T23:01:38.609Z,16.33
2018-11-27T23:04:07.200Z,14.83
2018-11-27T23:06:35.115Z,17.60
2018-11-27T23:09:06.371Z,16.27
2018-11-27T23:11:34.132Z,16.30
2018-11-27T23:14:01.911Z,16.70
2018-11-27T23:16:29.657Z,16.25
2018-11-27T23:18:57.390Z,16.30
2018-11-27T23:21:25.193Z,15.50
2018-11-27T23:23:52.929Z,16.50
2018-11-27T23:26:20.669Z,16.90
2018-11-27T23:28:48.371Z,15.20
2018-11-27T23:31:16.100Z,16.23
2018-11-27T23:33:43.764Z,15.57
2018-11-27T23:36:11.439Z,16.47
2018-11-27T23:38:39.109Z,15.73
2018-11-27T23:41:06.877Z,15.30
2018-11-27T23:43:34.703Z,15.70
2018-11-27T23:46:02.425Z,16.93
2018-11-27T23:48:30.160Z,16.63
2018-11-27T23:50:57.857Z,17.23
2018-11-27T23:53:25.617Z,16.63
2018-11-27T23:55:53.322Z,16.97
2018-11-27T23:58:21.112Z,17.17
